createdAt,value
2023-03-12T00:00:54.091Z,11.90
2023-03-12T00:03:20.808Z,11.88
2023-03-12T00:05:47.568Z,11.90
2023-03-12T00:08:14.249Z,11.96
2023-03-12T00:10:40.948Z,11.94
2023-03-12T00:13:08.138Z,11.87
2023-03-12T00:15:38.230Z,11.75
2023-03-12T00:18:05.042Z,11.80
2023-03-12T00:20:31.788Z,11.87
2023-03-12T00:22:58.394Z,11.92
2023-03-12T00:25:25.026Z,11.82
2023-03-12T00:27:51.741Z,11.87
2023-03-12T00:30:18.480Z,11.83
2023-03-12T00:32:45.204Z,11.81
2023-03-12T00:35:13.085Z,11.80
2023-03-12T00:37:39.762Z,11.87
2023-03-12T00:40:07.337Z,11.87
2023-03-12T00:42:33.969Z,11.96
2023-03-12T00:45:00.711Z,11.86
2023-03-12T00:47:27.427Z,11.81
2023-03-12T00:49:54.107Z,11.78
2023-03-12T00:52:20.714Z,11.80
2023-03-12T00:54:47.488Z,11.75
2023-03-12T00:57:14.109Z,11.81
2023-03-12T00:59:40.732Z,11.80
2023-03-12T01:02:08.225Z,11.85
2023-03-12T01:04:34.949Z,11.87
2023-03-12T01:07:01.632Z,11.89
2023-03-12T01:09:28.246Z,11.89
2023-03-12T01:11:54.906Z,11.86
2023-03-12T01:14:21.591Z,11.80
2023-03-12T01:16:49.838Z,11.83
2023-03-12T01:19:18.432Z,11.91
2023-03-12T01:21:45.105Z,11.89
2023-03-12T01:24:11.749Z,11.88
2023-03-12T01:26:38.372Z,11.84
2023-03-12T01:29:05.010Z,11.75
2023-03-12T01:31:31.714Z,11.74
2023-03-12T01:33:58.408Z,11.72
2023-03-12T01:36:26.531Z,11.79
2023-03-12T01:38:54.149Z,11.87
2023-03-12T01:41:21.083Z,11.79
2023-03-12T01:43:47.760Z,11.88
2023-03-12T01:46:36.268Z,11.91
2023-03-12T01:49:31.839Z,11.91
2023-03-12T01:52:01.478Z,11.81
2023-03-12T01:54:58.134Z,11.75
2023-03-12T01:57:28.950Z,11.67
2023-03-12T02:00:01.003Z,11.62
2023-03-12T02:02:27.706Z,11.65
2023-03-12T02:05:30.591Z,11.69
2023-03-12T02:07:57.276Z,11.71
2023-03-12T02:10:24.384Z,11.71
2023-03-12T02:12:51.130Z,11.69
2023-03-12T02:15:17.844Z,11.65
2023-03-12T02:17:44.490Z,11.64
2023-03-12T02:20:21.025Z,11.62
2023-03-12T02:23:08.356Z,11.58
2023-03-12T02:25:46.150Z,11.55
2023-03-12T02:28:13.898Z,11.52
2023-03-12T02:30:41.901Z,11.55
2023-03-12T02:33:09.631Z,11.61
2023-03-12T02:35:36.574Z,11.60
2023-03-12T02:38:03.365Z,11.53
2023-03-12T02:40:41.415Z,11.42
2023-03-12T02:43:08.463Z,11.47
2023-03-12T02:45:36.004Z,11.46
2023-03-12T02:48:03.897Z,11.53
2023-03-12T02:50:30.584Z,11.56
2023-03-12T02:52:57.224Z,11.60
2023-03-12T02:55:23.942Z,11.55
2023-03-12T02:57:50.570Z,11.48
2023-03-12T03:00:17.688Z,11.59
2023-03-12T03:02:44.353Z,11.60
2023-03-12T03:05:11.084Z,11.62
2023-03-12T03:07:37.889Z,11.70
2023-03-12T03:10:05.459Z,11.68
2023-03-12T03:12:32.527Z,11.62
2023-03-12T03:14:59.133Z,11.66
2023-03-12T03:17:25.815Z,11.74
2023-03-12T03:19:52.487Z,11.80
2023-03-12T03:22:19.818Z,11.77
2023-03-12T03:24:46.507Z,11.74
2023-03-12T03:27:13.502Z,11.74
2023-03-12T03:29:40.108Z,11.71
2023-03-12T03:32:06.921Z,11.76
2023-03-12T03:34:33.551Z,11.76
2023-03-12T03:37:00.172Z,11.81
2023-03-12T03:39:28.907Z,11.81
2023-03-12T03:41:55.590Z,11.87
2023-03-12T03:44:22.238Z,11.93
2023-03-12T03:46:49.367Z,11.97
2023-03-12T03:49:16.036Z,12.04
2023-03-12T03:51:42.882Z,12.08
2023-03-12T03:54:10.200Z,12.05
2023-03-12T03:56:36.857Z,12.07
2023-03-12T03:59:03.562Z,12.09
2023-03-12T04:01:30.311Z,12.14
2023-03-12T04:03:58.282Z,12.14
2023-03-12T04:06:24.896Z,12.14
2023-03-12T04:08:51.563Z,12.13
2023-03-12T04:11:19.498Z,12.05
2023-03-12T04:13:46.243Z,11.84
2023-03-12T04:16:13.072Z,11.81
2023-03-12T04:18:39.809Z,11.84
2023-03-12T04:21:07.523Z,11.86
2023-03-12T04:23:34.724Z,11.98
2023-03-12T04:26:01.397Z,11.91
2023-03-12T04:28:28.110Z,12.09
2023-03-12T04:30:56.129Z,12.19
2023-03-12T04:33:22.833Z,12.23
2023-03-12T04:35:53.155Z,12.31
2023-03-12T04:38:24.227Z,12.36
2023-03-12T04:41:07.974Z,12.41
2023-03-12T04:43:34.715Z,12.40
2023-03-12T04:46:01.370Z,12.38
2023-03-12T04:48:27.993Z,12.42
2023-03-12T04:50:54.647Z,12.42
2023-03-12T04:53:21.562Z,12.41
2023-03-12T04:55:48.220Z,12.43
2023-03-12T04:58:14.826Z,12.50
2023-03-12T05:00:41.541Z,12.54
2023-03-12T05:03:08.257Z,12.51
2023-03-12T05:05:35.113Z,12.51
2023-03-12T05:08:02.433Z,12.55
2023-03-12T05:10:29.086Z,12.51
2023-03-12T05:12:55.736Z,12.47
2023-03-12T05:15:22.429Z,12.45
2023-03-12T05:17:49.127Z,12.39
2023-03-12T05:20:15.783Z,12.31
2023-03-12T05:22:42.471Z,12.28
2023-03-12T05:25:09.691Z,12.18
2023-03-12T05:27:36.450Z,12.30
2023-03-12T05:30:04.421Z,12.34
2023-03-12T05:32:31.597Z,12.39
2023-03-12T05:34:58.263Z,12.42
2023-03-12T05:37:24.900Z,12.48
2023-03-12T05:39:53.501Z,12.47
2023-03-12T05:42:20.099Z,12.26
2023-03-12T05:44:46.711Z,12.30
2023-03-12T05:47:13.323Z,12.40
2023-03-12T05:49:39.916Z,12.47
2023-03-12T05:52:06.745Z,12.15
2023-03-12T05:54:33.480Z,12.36
2023-03-12T05:57:00.407Z,12.42
2023-03-12T05:59:27.197Z,12.45
2023-03-12T06:01:53.952Z,12.41
2023-03-12T06:04:20.653Z,12.30
2023-03-12T06:06:47.287Z,12.35
2023-03-12T06:09:13.891Z,12.45
2023-03-12T06:11:40.853Z,12.51
2023-03-12T06:14:07.526Z,12.55
2023-03-12T06:16:34.190Z,12.58
2023-03-12T06:19:01.757Z,12.56
2023-03-12T06:21:30.234Z,12.48
2023-03-12T06:23:57.757Z,12.59
2023-03-12T06:26:24.453Z,12.62
2023-03-12T06:28:51.234Z,12.64
2023-03-12T06:31:18.750Z,12.62
2023-03-12T06:33:45.422Z,12.65
2023-03-12T06:36:12.657Z,12.66
2023-03-12T06:38:39.353Z,12.72
2023-03-12T06:41:14.302Z,12.80
2023-03-12T06:43:41.014Z,12.77
2023-03-12T06:46:08.589Z,12.81
2023-03-12T06:48:35.545Z,12.87
2023-03-12T06:51:05.027Z,12.93
2023-03-12T06:53:31.957Z,12.92
2023-03-12T06:55:58.653Z,12.98
2023-03-12T06:58:25.331Z,12.95
2023-03-12T07:00:52.363Z,12.90
2023-03-12T07:03:19.162Z,12.80
2023-03-12T07:05:46.792Z,12.89
2023-03-12T07:08:13.558Z,12.87
2023-03-12T07:10:40.209Z,12.79
2023-03-12T07:13:06.889Z,12.69
2023-03-12T07:15:33.639Z,12.63
2023-03-12T07:18:10.990Z,12.68
2023-03-12T07:20:38.773Z,12.72
2023-03-12T07:23:05.411Z,12.79
2023-03-12T07:25:34.627Z,12.84
2023-03-12T07:28:01.272Z,12.86
2023-03-12T07:30:27.880Z,12.97
2023-03-12T07:32:54.584Z,13.00
2023-03-12T07:35:21.302Z,13.00
2023-03-12T07:37:49.706Z,13.03
2023-03-12T07:40:16.369Z,13.04
2023-03-12T07:42:43.019Z,13.02
2023-03-12T07:45:10.008Z,13.05
2023-03-12T07:47:36.727Z,13.05
2023-03-12T07:50:03.617Z,13.03
2023-03-12T07:52:30.513Z,13.03
2023-03-12T07:54:57.227Z,13.00
2023-03-12T07:57:24.061Z,13.07
2023-03-12T07:59:50.739Z,13.17
2023-03-12T08:02:17.609Z,13.28
2023-03-12T08:04:44.384Z,13.38
2023-03-12T08:07:11.052Z,13.47
2023-03-12T08:09:38.355Z,13.50
2023-03-12T08:12:06.361Z,13.56
2023-03-12T08:14:33.298Z,13.57
2023-03-12T08:17:00.099Z,13.62
2023-03-12T08:19:27.393Z,13.72
2023-03-12T08:21:54.131Z,13.78
2023-03-12T08:24:22.498Z,13.85
2023-03-12T08:26:49.140Z,13.89
2023-03-12T08:29:16.345Z,13.92
2023-03-12T08:31:57.437Z,13.93
2023-03-12T08:34:29.710Z,14.03
2023-03-12T08:36:56.360Z,14.05
2023-03-12T08:39:22.971Z,14.10
2023-03-12T08:41:49.624Z,14.15
2023-03-12T08:44:16.269Z,14.03
2023-03-12T08:46:42.886Z,14.15
2023-03-12T08:49:09.494Z,14.24
2023-03-12T08:51:36.148Z,14.27
2023-03-12T08:54:02.808Z,14.40
2023-03-12T08:56:29.543Z,14.51
2023-03-12T08:58:56.139Z,14.49
2023-03-12T09:01:22.801Z,14.56
2023-03-12T09:03:49.483Z,14.80
2023-03-12T09:06:16.128Z,14.87
2023-03-12T09:08:43.049Z,14.82
2023-03-12T09:11:10.779Z,14.90
2023-03-12T09:13:58.842Z,15.11
2023-03-12T09:16:24.196Z,15.27
2023-03-12T09:18:50.894Z,15.17
2023-03-12T09:21:17.550Z,15.07
2023-03-12T09:23:44.147Z,14.99
2023-03-12T09:26:11.487Z,15.09
2023-03-12T09:28:38.131Z,15.21
2023-03-12T09:31:05.069Z,15.34
2023-03-12T09:33:32.579Z,15.38
2023-03-12T09:35:59.474Z,15.25
2023-03-12T09:38:26.353Z,15.46
2023-03-12T09:40:52.994Z,15.42
2023-03-12T09:43:25.428Z,15.38
2023-03-12T09:45:52.115Z,15.45
2023-03-12T09:48:22.401Z,15.43
2023-03-12T09:50:49.737Z,15.52
2023-03-12T09:53:40.495Z,15.62
2023-03-12T09:56:11.949Z,15.68
2023-03-12T09:58:38.641Z,15.57
2023-03-12T10:01:26.396Z,15.45
2023-03-12T10:04:11.834Z,15.77
2023-03-12T10:06:55.691Z,15.82
2023-03-12T10:09:34.457Z,15.86
2023-03-12T10:12:22.229Z,15.85
2023-03-12T10:14:54.843Z,15.92
2023-03-12T10:17:45.390Z,15.97
2023-03-12T10:20:40.952Z,16.04
2023-03-12T10:23:36.330Z,16.35
2023-03-12T10:26:10.457Z,16.57
2023-03-12T10:29:01.712Z,16.47
2023-03-12T10:31:28.281Z,16.49
2023-03-12T10:33:59.208Z,16.48
2023-03-12T10:36:37.092Z,16.59
2023-03-12T10:39:04.207Z,16.41
2023-03-12T10:41:34.550Z,16.53
2023-03-12T10:44:06.184Z,16.59
2023-03-12T10:46:41.948Z,16.59
2023-03-12T10:49:24.254Z,16.15
2023-03-12T10:52:06.028Z,16.17
2023-03-12T10:54:38.780Z,16.31
2023-03-12T10:57:05.405Z,16.63
2023-03-12T10:59:34.117Z,16.78
2023-03-12T11:02:00.758Z,16.73
2023-03-12T11:04:30.442Z,16.67
2023-03-12T11:07:12.368Z,16.56
2023-03-12T11:09:38.976Z,16.09
2023-03-12T11:12:25.224Z,15.91
2023-03-12T11:14:51.909Z,16.30
2023-03-12T11:17:28.865Z,16.14
2023-03-12T11:19:55.474Z,16.17
2023-03-12T11:22:33.352Z,16.51
2023-03-12T11:25:01.648Z,16.59
2023-03-12T11:27:48.001Z,16.54
2023-03-12T11:30:15.973Z,16.75
2023-03-12T11:32:45.603Z,16.58
2023-03-12T11:35:17.392Z,16.36
2023-03-12T11:37:59.048Z,16.47
2023-03-12T11:40:28.421Z,16.36
2023-03-12T11:43:40.006Z,16.52
2023-03-12T11:46:19.657Z,16.66
2023-03-12T11:48:52.222Z,16.53
2023-03-12T11:51:24.614Z,16.41
2023-03-12T11:54:13.372Z,16.63
2023-03-12T11:56:51.654Z,16.81
2023-03-12T11:59:49.463Z,17.22
2023-03-12T12:02:34.318Z,17.66
2023-03-12T12:05:06.926Z,18.02
2023-03-12T12:07:58.846Z,18.15
2023-03-12T12:10:33.858Z,18.06
2023-03-12T12:13:34.504Z,17.54
2023-03-12T12:16:36.826Z,17.42
2023-03-12T12:19:38.858Z,17.27
2023-03-12T12:22:27.079Z,17.25
2023-03-12T12:25:11.937Z,17.11
2023-03-12T12:28:04.435Z,17.06
2023-03-12T12:30:49.506Z,17.12
2023-03-12T12:33:48.388Z,17.17
2023-03-12T12:36:15.057Z,17.13
2023-03-12T12:38:48.324Z,17.16
2023-03-12T12:41:19.576Z,16.92
2023-03-12T12:43:51.252Z,16.86
2023-03-12T12:46:39.136Z,16.44
2023-03-12T12:49:23.063Z,16.43
2023-03-12T12:51:53.621Z,16.49
2023-03-12T12:54:23.248Z,16.71
2023-03-12T12:57:11.703Z,16.65
2023-03-12T12:59:56.915Z,16.61
2023-03-12T13:02:24.735Z,16.82
2023-03-12T13:04:51.388Z,16.98
2023-03-12T13:07:20.970Z,17.03
2023-03-12T13:09:49.282Z,17.16
2023-03-12T13:12:46.831Z,17.30
2023-03-12T13:15:31.550Z,17.46
2023-03-12T13:17:58.047Z,17.47
2023-03-12T13:20:29.237Z,17.46
2023-03-12T13:23:42.188Z,17.61
2023-03-12T13:26:14.369Z,17.58
2023-03-12T13:28:56.772Z,17.55
2023-03-12T13:31:29.082Z,17.71
2023-03-12T13:33:59.001Z,17.63
2023-03-12T13:36:27.164Z,17.50
2023-03-12T13:38:57.856Z,17.53
2023-03-12T13:41:45.860Z,17.53
2023-03-12T13:44:27.639Z,17.24
2023-03-12T13:47:19.556Z,17.18
2023-03-12T13:49:50.070Z,17.27
2023-03-12T13:52:23.691Z,17.41
2023-03-12T13:55:02.311Z,17.34
2023-03-12T13:57:31.689Z,17.24
2023-03-12T13:59:58.521Z,17.26
2023-03-12T14:02:27.811Z,17.32
2023-03-12T14:04:55.797Z,17.23
2023-03-12T14:08:10.916Z,17.33
2023-03-12T14:10:46.497Z,17.25
2023-03-12T14:13:48.507Z,17.35
2023-03-12T14:16:35.245Z,17.45
2023-03-12T14:19:02.699Z,17.42
2023-03-12T14:21:33.310Z,17.40
2023-03-12T14:23:59.940Z,17.12
2023-03-12T14:26:32.345Z,17.19
2023-03-12T14:29:01.503Z,17.09
2023-03-12T14:31:28.663Z,17.15
2023-03-12T14:34:05.940Z,17.25
2023-03-12T14:36:40.541Z,17.26
2023-03-12T14:39:28.611Z,17.25
2023-03-12T14:41:58.965Z,17.18
2023-03-12T14:44:27.313Z,17.34
2023-03-12T14:47:09.090Z,17.40
2023-03-12T14:49:40.892Z,17.23
2023-03-12T14:52:07.569Z,17.24
2023-03-12T14:54:34.238Z,17.12
2023-03-12T14:57:00.919Z,17.00
2023-03-12T14:59:29.095Z,16.75
2023-03-12T15:02:17.092Z,16.63
2023-03-12T15:04:43.815Z,16.49
2023-03-12T15:07:11.762Z,16.48
2023-03-12T15:09:40.395Z,16.54
2023-03-12T15:12:08.070Z,16.39
2023-03-12T15:14:38.507Z,16.50
2023-03-12T15:17:05.130Z,16.60
2023-03-12T15:19:33.802Z,16.34
2023-03-12T15:22:00.481Z,16.30
2023-03-12T15:24:27.090Z,16.39
2023-03-12T15:26:53.712Z,16.58
2023-03-12T15:29:21.897Z,16.81
2023-03-12T15:31:49.545Z,16.68
2023-03-12T15:34:42.630Z,16.94
2023-03-12T15:37:23.003Z,16.67
2023-03-12T15:39:53.159Z,16.90
2023-03-12T15:42:22.155Z,16.78
2023-03-12T15:44:50.962Z,16.63
2023-03-12T15:47:18.958Z,16.39
2023-03-12T15:49:54.787Z,16.44
2023-03-12T15:52:21.328Z,16.50
2023-03-12T15:55:22.562Z,16.21
2023-03-12T15:57:53.987Z,16.18
2023-03-12T16:00:20.894Z,16.28
2023-03-12T16:02:51.667Z,16.44
2023-03-12T16:05:26.333Z,16.50
2023-03-12T16:07:54.285Z,16.21
2023-03-12T16:10:21.973Z,16.22
2023-03-12T16:12:49.273Z,16.23
2023-03-12T16:15:17.634Z,16.12
2023-03-12T16:17:44.314Z,16.26
2023-03-12T16:20:14.511Z,16.24
2023-03-12T16:22:41.232Z,16.31
2023-03-12T16:25:09.650Z,16.43
2023-03-12T16:27:37.939Z,16.53
2023-03-12T16:30:07.355Z,16.63
2023-03-12T16:32:34.159Z,16.63
2023-03-12T16:35:00.858Z,16.72
2023-03-12T16:37:27.522Z,16.67
2023-03-12T16:39:54.119Z,16.75
2023-03-12T16:42:20.751Z,16.68
2023-03-12T16:44:47.395Z,16.66
2023-03-12T16:47:14.046Z,16.64
2023-03-12T16:49:40.803Z,16.69
2023-03-12T16:52:21.068Z,16.57
2023-03-12T16:54:54.031Z,16.33
2023-03-12T16:57:27.768Z,16.44
2023-03-12T16:59:54.416Z,16.43
2023-03-12T17:02:21.102Z,16.31
2023-03-12T17:04:47.829Z,16.33
2023-03-12T17:07:14.853Z,16.35
2023-03-12T17:09:41.530Z,16.25
2023-03-12T17:12:16.812Z,16.10
2023-03-12T17:14:43.416Z,16.22
2023-03-12T17:17:10.008Z,16.13
2023-03-12T17:19:36.640Z,16.07
2023-03-12T17:22:03.235Z,16.01
2023-03-12T17:24:29.953Z,15.90
2023-03-12T17:26:56.577Z,15.74
2023-03-12T17:29:23.189Z,15.62
2023-03-12T17:31:49.971Z,15.52
2023-03-12T17:34:16.633Z,15.47
2023-03-12T17:36:43.430Z,15.34
2023-03-12T17:39:10.102Z,15.27
2023-03-12T17:41:36.784Z,15.27
2023-03-12T17:44:03.434Z,15.01
2023-03-12T17:46:30.531Z,15.03
2023-03-12T17:48:57.232Z,15.03
2023-03-12T17:51:23.958Z,14.97
2023-03-12T17:53:50.679Z,14.94
2023-03-12T17:56:17.340Z,14.92
2023-03-12T17:58:44.881Z,14.85
2023-03-12T18:01:13.166Z,14.82
2023-03-12T18:03:40.210Z,14.76
2023-03-12T18:06:07.054Z,14.68
2023-03-12T18:08:33.779Z,14.67
2023-03-12T18:11:00.644Z,14.67
2023-03-12T18:13:27.290Z,14.44
2023-03-12T18:15:55.267Z,14.41
2023-03-12T18:18:22.199Z,14.34
2023-03-12T18:20:48.970Z,14.20
2023-03-12T18:23:17.251Z,14.30
2023-03-12T18:25:44.053Z,14.28
2023-03-12T18:28:10.682Z,14.29
2023-03-12T18:30:37.300Z,14.18
2023-03-12T18:33:03.945Z,14.15
2023-03-12T18:35:30.632Z,14.02
2023-03-12T18:37:57.354Z,13.90
2023-03-12T18:40:24.089Z,13.86
2023-03-12T18:42:50.801Z,13.81
2023-03-12T18:45:17.523Z,13.91
2023-03-12T18:47:44.194Z,13.90
2023-03-12T18:50:11.871Z,13.74
2023-03-12T18:52:38.614Z,13.76
2023-03-12T18:55:05.427Z,13.79
2023-03-12T18:57:32.205Z,13.86
2023-03-12T18:59:58.829Z,13.92
2023-03-12T19:02:25.497Z,13.91
2023-03-12T19:04:54.804Z,13.82
2023-03-12T19:07:22.519Z,13.81
2023-03-12T19:09:49.193Z,13.81
2023-03-12T19:12:15.841Z,13.76
2023-03-12T19:14:42.454Z,13.76
2023-03-12T19:17:09.071Z,13.75
2023-03-12T19:19:35.739Z,13.64
2023-03-12T19:22:02.357Z,13.66
2023-03-12T19:24:29.149Z,13.61
2023-03-12T19:26:56.119Z,13.56
2023-03-12T19:29:22.791Z,13.52
2023-03-12T19:31:49.490Z,13.49
2023-03-12T19:34:16.171Z,13.44
2023-03-12T19:36:43.063Z,13.39
2023-03-12T19:39:20.515Z,13.37
2023-03-12T19:41:47.929Z,13.39
2023-03-12T19:44:14.739Z,13.30
2023-03-12T19:46:41.361Z,13.16
2023-03-12T19:49:07.983Z,13.21
2023-03-12T19:51:34.589Z,13.21
2023-03-12T19:54:01.232Z,13.19
2023-03-12T19:56:27.857Z,13.13
2023-03-12T19:58:54.621Z,13.17
2023-03-12T20:01:21.237Z,13.13
2023-03-12T20:03:47.899Z,13.19
2023-03-12T20:06:14.523Z,13.14
2023-03-12T20:08:41.126Z,12.94
2023-03-12T20:11:09.160Z,12.92
2023-03-12T20:13:35.983Z,12.94
2023-03-12T20:16:02.650Z,13.09
2023-03-12T20:18:29.537Z,13.00
2023-03-12T20:20:56.137Z,12.98
2023-03-12T20:23:22.847Z,12.93
2023-03-12T20:25:49.715Z,12.88
2023-03-12T20:28:16.414Z,12.87
2023-03-12T20:30:43.197Z,12.90
2023-03-12T20:33:09.862Z,12.98
2023-03-12T20:35:36.720Z,12.99
2023-03-12T20:38:03.576Z,12.94
2023-03-12T20:40:30.244Z,13.03
2023-03-12T20:42:56.891Z,13.00
2023-03-12T20:45:24.167Z,13.00
2023-03-12T20:47:53.164Z,13.03
2023-03-12T20:50:19.985Z,13.15
2023-03-12T20:52:46.664Z,13.08
2023-03-12T20:55:13.280Z,13.02
2023-03-12T20:57:39.986Z,13.03
2023-03-12T21:00:07.988Z,13.15
2023-03-12T21:02:34.769Z,13.22
2023-03-12T21:05:01.593Z,13.29
2023-03-12T21:07:28.227Z,13.29
2023-03-12T21:09:54.862Z,13.27
2023-03-12T21:12:22.055Z,13.22
2023-03-12T21:14:50.299Z,13.24
2023-03-12T21:17:18.167Z,13.22
2023-03-12T21:19:46.004Z,13.25
2023-03-12T21:22:12.699Z,13.32
2023-03-12T21:24:40.103Z,13.33
2023-03-12T21:27:08.073Z,13.29
2023-03-12T21:29:36.042Z,13.25
2023-03-12T21:32:04.096Z,13.30
2023-03-12T21:34:32.197Z,13.27
2023-03-12T21:37:00.123Z,13.22
2023-03-12T21:39:28.132Z,13.20
2023-03-12T21:41:56.027Z,13.14
2023-03-12T21:44:23.982Z,13.12
2023-03-12T21:46:52.068Z,13.12
2023-03-12T21:49:20.170Z,13.12
2023-03-12T21:51:48.050Z,13.09
2023-03-12T21:54:16.115Z,13.05
2023-03-12T21:56:44.049Z,12.92
2023-03-12T21:59:12.078Z,12.89
2023-03-12T22:01:40.096Z,12.87
2023-03-12T22:04:08.130Z,12.74
2023-03-12T22:06:36.236Z,12.78
2023-03-12T22:09:04.136Z,12.73
2023-03-12T22:11:32.425Z,12.73
2023-03-12T22:14:00.143Z,12.62
2023-03-12T22:16:28.237Z,12.68
2023-03-12T22:18:56.528Z,12.66
2023-03-12T22:21:24.135Z,12.55
2023-03-12T22:23:53.997Z,12.58
2023-03-12T22:26:22.492Z,12.64
2023-03-12T22:28:50.579Z,12.58
2023-03-12T22:31:18.399Z,12.62
2023-03-12T22:33:46.211Z,12.72
2023-03-12T22:36:14.147Z,12.71
2023-03-12T22:38:40.898Z,12.64
2023-03-12T22:41:18.865Z,12.62
2023-03-12T22:43:46.256Z,12.75
2023-03-12T22:46:14.386Z,12.69
2023-03-12T22:48:42.587Z,12.76
2023-03-12T22:51:10.046Z,12.70
2023-03-12T22:53:38.090Z,12.66
2023-03-12T22:56:07.102Z,12.70
2023-03-12T22:58:36.755Z,12.68
2023-03-12T23:01:11.452Z,12.66
2023-03-12T23:03:39.009Z,12.72
2023-03-12T23:06:14.095Z,12.66
2023-03-12T23:08:42.107Z,12.69
2023-03-12T23:11:10.232Z,12.63
2023-03-12T23:13:38.788Z,12.67
2023-03-12T23:16:07.068Z,12.78
2023-03-12T23:18:34.319Z,12.82
2023-03-12T23:21:01.910Z,12.90
2023-03-12T23:23:29.087Z,12.96
2023-03-12T23:25:56.328Z,12.97
2023-03-12T23:28:23.229Z,12.90
2023-03-12T23:31:08.578Z,13.07
2023-03-12T23:33:35.295Z,13.15
2023-03-12T23:36:02.982Z,13.20
2023-03-12T23:38:29.901Z,13.19
2023-03-12T23:41:02.323Z,13.14
2023-03-12T23:43:28.950Z,13.20
2023-03-12T23:46:00.425Z,13.17
2023-03-12T23:48:27.997Z,13.16
2023-03-12T23:50:54.624Z,13.25
2023-03-12T23:53:21.372Z,13.07
2023-03-12T23:55:55.252Z,13.18
2023-03-12T23:58:22.121Z,13.16
